Time;durP1;ratioP1;P1;durP2;ratioP2;P2;SDS_P1;SDS_P2;PMS_P1;PMS_P2;Temp;Humidity;BMP_temperature;BMP_pressure;BME280_temperature;BME280_humidity;BME280_pressure;Samples;Min_cycle;Max_cycle;Signal;HPM_P1;HPM_P2
2022/11/08 00:03:18;;;;;;;3.03;0.70;;;;;;;18.77;48.93;100875.41;16120265;19;129471;-33
2022/11/08 00:14:20;;;;;;;1.35;0.50;;;;;;;18.73;49.17;100865.88;16120872;19;129555;-33
2022/11/08 00:19:42;;;;;;;0.95;0.43;;;;;;;18.71;49.60;100862.53;16121453;19;131051;-33
2022/11/08 00:25:05;;;;;;;1.45;0.50;;;;;;;18.71;49.54;100856.97;16120270;19;130372;-33
2022/11/08 00:30:26;;;;;;;1.05;0.50;;;;;;;18.70;49.74;100863.63;16120061;19;131353;-33
2022/11/08 00:35:48;;;;;;;1.25;0.50;;;;;;;18.68;49.82;100857.50;16117661;19;130607;-33
2022/11/08 00:41:11;;;;;;;0.75;0.32;;;;;;;18.67;49.61;100843.88;16133557;19;129465;-33
2022/11/08 00:46:32;;;;;;;2.30;0.63;;;;;;;18.64;49.44;100833.31;16132350;19;129561;-33
2022/11/08 00:51:54;;;;;;;2.13;0.60;;;;;;;18.61;49.83;100840.16;16135520;19;129531;-33
2022/11/08 00:57:16;;;;;;;1.13;0.45;;;;;;;18.61;49.51;100829.94;16133409;19;129916;-33
2022/11/08 01:02:37;;;;;;;3.70;0.70;;;;;;;18.59;49.71;100825.72;16129858;19;129433;-33
2022/11/08 01:07:59;;;;;;;1.77;0.70;;;;;;;18.57;50.02;100816.84;16130501;19;129927;-33
2022/11/08 01:13:21;;;;;;;1.23;0.40;;;;;;;18.56;49.78;100806.84;16134180;19;129633;-33
2022/11/08 01:18:44;;;;;;;1.45;0.40;;;;;;;18.55;49.86;100813.47;16131543;19;129327;-33
2022/11/08 01:24:06;;;;;;;2.55;0.60;;;;;;;18.52;50.09;100800.09;16130476;19;129633;-33
2022/11/08 01:29:28;;;;;;;1.98;0.73;;;;;;;18.52;49.74;100805.66;16128889;19;129487;-33
2022/11/08 01:34:49;;;;;;;1.17;0.50;;;;;;;18.52;49.96;100794.56;16130369;19;131012;-33
2022/11/08 01:40:12;;;;;;;0.93;0.40;;;;;;;18.51;49.67;100792.88;16128832;19;129960;-33
2022/11/08 01:46:11;;;;;;;1.95;0.50;;;;;;;18.50;49.96;100788.44;16129858;19;129796;-33
2022/11/08 01:51:40;;;;;;;3.17;0.70;;;;;;;18.46;50.12;100775.06;16127148;19;129457;-33
2022/11/08 01:57:06;;;;;;;0.82;0.40;;;;;;;18.45;49.85;100765.09;16128782;19;130836;-33
2022/11/08 02:02:27;;;;;;;0.68;0.38;;;;;;;18.43;50.29;100753.44;16127601;19;129483;-33
2022/11/08 02:08:03;;;;;;;2.05;0.30;;;;;;;18.45;50.03;100734.63;16125584;19;129538;-33
2022/11/08 02:13:28;;;;;;;3.25;0.70;;;;;;;18.43;50.14;100728.50;16126333;19;129789;-33
2022/11/08 02:18:50;;;;;;;2.65;0.60;;;;;;;18.41;50.24;100719.59;16127204;19;129184;-33
2022/11/08 02:24:13;;;;;;;2.42;0.70;;;;;;;18.41;49.98;100702.13;16126686;19;129720;-33
2022/11/08 02:29:35;;;;;;;1.65;0.70;;;;;;;18.39;49.96;100694.06;16125849;19;129630;-33
2022/11/08 02:34:58;;;;;;;1.10;0.38;;;;;;;18.38;49.92;100691.53;16127990;19;133286;-33
2022/11/08 02:40:19;;;;;;;0.98;0.50;;;;;;;18.38;50.26;100691.53;16126645;19;128970;-33
2022/11/08 02:45:41;;;;;;;1.02;0.50;;;;;;;18.37;50.07;100673.22;16128345;19;129667;-33
2022/11/08 02:51:03;;;;;;;1.13;0.47;;;;;;;18.36;49.88;100668.78;16123291;19;129122;-33
2022/11/08 02:56:24;;;;;;;1.58;0.65;;;;;;;18.36;50.07;100661.28;16123524;19;130774;-33
2022/11/08 03:01:46;;;;;;;1.55;0.55;;;;;;;18.35;49.99;100656.84;16122691;19;129417;-33
2022/11/08 03:07:08;;;;;;;1.75;0.55;;;;;;;18.35;49.79;100645.78;16122848;19;129729;-33
2022/11/08 03:12:30;;;;;;;0.95;0.40;;;;;;;18.33;50.19;100639.66;16124293;19;129619;-33
2022/11/08 03:17:52;;;;;;;1.38;0.60;;;;;;;18.34;49.87;100630.25;16122661;19;132163;-33
2022/11/08 03:23:14;;;;;;;1.38;0.50;;;;;;;18.32;49.65;100613.06;16122369;19;129560;-33
2022/11/08 03:28:36;;;;;;;1.45;0.50;;;;;;;18.31;49.64;100597.53;16119898;19;130454;-33
2022/11/08 03:33:57;;;;;;;0.90;0.40;;;;;;;18.30;49.74;100577.28;16123888;19;130303;-33
2022/11/08 03:39:19;;;;;;;1.10;0.40;;;;;;;18.29;49.68;100578.38;16126146;19;129426;-33
2022/11/08 03:44:41;;;;;;;1.58;0.50;;;;;;;18.29;49.76;100566.47;16121515;19;129403;-33
2022/11/08 03:50:03;;;;;;;1.48;0.60;;;;;;;18.29;49.59;100555.41;16119471;19;129201;-33
2022/11/08 03:55:26;;;;;;;0.77;0.38;;;;;;;18.28;49.92;100550.97;16122485;19;129815;-33
2022/11/08 04:00:48;;;;;;;2.03;0.50;;;;;;;18.26;49.55;100544.81;16117129;19;129865;-33
2022/11/08 04:06:09;;;;;;;1.70;0.40;;;;;;;18.24;49.59;100528.47;16117420;19;129525;-33
2022/11/08 04:17:11;;;;;;;0.95;0.52;;;;;;;18.24;49.47;100500.78;16135732;19;129686;-33
2022/11/08 04:22:33;;;;;;;1.33;0.50;;;;;;;18.22;49.96;100493.81;16135444;19;129151;-33
2022/11/08 04:27:54;;;;;;;1.80;0.40;;;;;;;18.22;49.41;100499.34;16136780;19;129644;-33
2022/11/08 04:33:16;;;;;;;1.92;0.38;;;;;;;18.21;49.59;100492.16;16136528;19;132883;-33
2022/11/08 04:38:38;;;;;;;0.60;0.40;;;;;;;18.21;49.29;100483.84;16134982;19;129634;-33
2022/11/08 04:44:00;;;;;;;1.20;0.40;;;;;;;18.21;49.31;100492.16;16136318;19;129416;-34
2022/11/08 04:49:21;;;;;;;1.38;0.40;;;;;;;18.20;49.20;100496.84;16136258;19;133994;-33
2022/11/08 04:54:44;;;;;;;0.85;0.50;;;;;;;18.20;49.28;100479.41;16133156;19;129682;-43
2022/11/08 05:00:06;;;;;;;2.13;0.50;;;;;;;18.20;49.44;100484.94;16135753;19;129564;-43
2022/11/08 05:05:28;;;;;;;1.50;0.70;;;;;;;18.19;49.32;100481.31;16133843;19;129520;-44
2022/11/08 05:10:49;;;;;;;0.60;0.40;;;;;;;18.20;49.22;100487.72;16132860;19;129759;-43
2022/11/08 05:16:13;;;;;;;1.45;0.40;;;;;;;18.20;49.33;100479.41;16134474;19;129531;-44
2022/11/08 05:27:16;;;;;;;1.48;0.50;;;;;;;18.17;49.42;100468.84;16130172;19;129594;-44
2022/11/08 05:32:37;;;;;;;0.65;0.30;;;;;;;18.17;49.24;100466.06;16130740;19;129576;-43
2022/11/08 05:37:59;;;;;;;1.13;0.40;;;;;;;18.15;49.24;100469.91;16131506;19;129153;-43
2022/11/08 05:43:21;;;;;;;1.20;0.68;;;;;;;18.15;49.34;100461.63;16130751;19;129835;-43
2022/11/08 05:48:43;;;;;;;1.65;0.40;;;;;;;18.17;48.93;100468.84;16129550;19;129652;-44
2022/11/08 05:54:06;;;;;;;0.70;0.38;;;;;;;18.14;48.96;100459.94;16130621;19;129662;-44
2022/11/08 05:59:29;;;;;;;0.85;0.40;;;;;;;18.14;49.40;100459.94;16127985;19;128919;-44
2022/11/08 06:04:50;;;;;;;0.60;0.22;;;;;;;18.13;49.50;100465.75;16127733;19;129529;-41
2022/11/08 06:10:12;;;;;;;0.43;0.30;;;;;;;18.13;49.20;100457.44;16127385;19;129642;-42
2022/11/08 06:15:34;;;;;;;1.67;0.65;;;;;;;18.13;49.28;100446.38;16126684;19;129763;-42
2022/11/08 06:20:59;;;;;;;1.90;0.47;;;;;;;18.13;49.20;100449.97;16126431;19;131217;-41
2022/11/08 06:26:21;;;;;;;;;;;;;;;18.10;49.53;100450.47;16129139;19;129684;-42
2022/11/08 06:31:43;;;;;;;0.70;0.30;;;;;;;18.13;49.19;100455.50;16122380;19;130880;-41
2022/11/08 06:37:05;;;;;;;0.80;0.32;;;;;;;18.12;49.16;100456.59;16117259;19;132998;-41
2022/11/08 06:42:26;;;;;;;0.75;0.30;;;;;;;18.12;49.48;100461.28;16125021;19;131198;-42
2022/11/08 06:47:48;;;;;;;5.32;0.68;;;;;;;18.15;49.03;100458.03;16121471;19;129514;-41
2022/11/08 06:53:12;;;;;;;1.52;0.50;;;;;;;18.15;49.18;100466.34;16125252;19;129519;-42
2022/11/08 06:58:34;;;;;;;3.33;0.70;;;;;;;18.20;49.31;100468.34;16125525;19;130074;-42
2022/11/08 07:03:55;;;;;;;6.97;0.80;;;;;;;18.31;49.17;100481.22;16124180;19;129669;-41
2022/11/08 07:09:17;;;;;;;2.78;0.30;;;;;;;18.31;48.98;100470.16;16123732;19;130128;-42
2022/11/08 07:14:39;;;;;;;3.03;0.50;;;;;;;18.37;48.46;100469.13;16124279;19;129567;-41
2022/11/08 07:20:01;;;;;;;2.80;0.50;;;;;;;18.41;48.56;100464.78;16125462;19;129071;-41
2022/11/08 07:25:23;;;;;;;2.13;0.52;;;;;;;18.46;48.59;100467.59;16123245;19;129692;-41
2022/11/08 07:30:47;;;;;;;5.55;0.95;;;;;;;18.53;48.55;100455.50;16120786;19;130442;-42
2022/11/08 07:36:08;;;;;;;5.57;0.70;;;;;;;18.63;48.37;100454.81;16121309;19;129396;-42
2022/11/08 07:41:30;;;;;;;2.63;0.60;;;;;;;18.53;48.21;100444.44;16119654;19;129617;-42
2022/11/08 07:46:52;;;;;;;4.20;0.45;;;;;;;18.48;48.03;100449.88;16118279;19;130323;-41
2022/11/08 07:52:13;;;;;;;1.67;0.52;;;;;;;18.52;47.99;100456.59;16122393;19;129546;-42
2022/11/08 07:57:35;;;;;;;3.65;0.80;;;;;;;18.49;48.39;100468.19;16121252;19;130241;-41
2022/11/08 08:02:59;;;;;;;7.80;0.68;;;;;;;18.49;48.36;100476.50;16121424;19;129490;-42
2022/11/08 08:08:21;;;;;;;5.30;0.65;;;;;;;18.42;48.48;100493.31;16118007;19;129261;-41
2022/11/08 08:13:43;;;;;;;4.55;0.70;;;;;;;18.40;48.25;100468.63;16119913;19;128927;-41
2022/11/08 08:19:04;;;;;;;4.60;0.60;;;;;;;18.38;48.44;100472.75;16119612;19;129499;-41
2022/11/08 08:24:26;;;;;;;3.92;0.90;;;;;;;18.33;48.23;100465.19;16117604;19;129935;-42
2022/11/08 08:29:49;;;;;;;2.63;0.68;;;;;;;18.31;48.43;100473.75;16113951;19;128946;-42
2022/11/08 08:35:11;;;;;;;5.68;0.68;;;;;;;18.29;48.53;100455.72;16118354;19;130229;-41
2022/11/08 08:40:33;;;;;;;4.95;0.55;;;;;;;18.29;48.33;100467.63;16119060;19;129629;-41
2022/11/08 08:46:00;;;;;;;5.07;0.32;;;;;;;18.32;48.11;100474.59;16120668;19;129946;-41
2022/11/08 08:51:22;;;;;;;3.13;0.77;;;;;;;18.35;48.52;100465.75;16120427;19;130427;-42
2022/11/08 08:56:43;;;;;;;1.42;0.40;;;;;;;18.31;48.22;100453.53;16114383;19;129652;-42
2022/11/08 09:02:05;;;;;;;2.78;0.60;;;;;;;18.30;47.79;100447.13;16130934;19;129554;-42
2022/11/08 09:07:27;;;;;;;2.28;0.57;;;;;;;18.31;47.82;100442.47;16134471;19;130246;-42
2022/11/08 09:12:49;;;;;;;1.60;0.50;;;;;;;18.30;47.60;100427.75;16128767;19;129416;-41
2022/11/08 09:18:11;;;;;;;0.98;0.50;;;;;;;18.32;47.30;100433.06;16131540;19;129495;-41
2022/11/08 09:23:33;;;;;;;1.75;0.70;;;;;;;18.34;47.45;100436.38;16129911;19;129345;-41
2022/11/08 09:28:54;;;;;;;3.28;0.68;;;;;;;18.35;47.58;100457.44;16128984;19;129474;-41
2022/11/08 09:34:16;;;;;;;1.20;0.70;;;;;;;18.36;47.34;100461.91;16131199;19;129657;-42
2022/11/08 09:39:42;;;;;;;2.45;0.93;;;;;;;18.36;47.67;100472.97;16130026;19;129934;-42
2022/11/08 09:45:18;;;;;;;4.97;0.55;;;;;;;18.37;47.07;100454.44;16131331;19;129915;-41
2022/11/08 09:50:45;;;;;;;2.42;0.77;;;;;;;18.32;47.60;100469.06;16128379;19;130640;-41
2022/11/08 09:56:32;;;;;;;1.33;0.60;;;;;;;18.31;47.16;100465.44;16127887;19;128972;-41
2022/11/08 10:01:54;;;;;;;2.08;0.95;;;;;;;18.29;47.28;100480.63;16123418;19;129064;-42
2022/11/08 10:07:31;;;;;;;4.28;1.00;;;;;;;18.29;47.00;100489.78;16118818;19;130502;-41
2022/11/08 10:13:11;;;;;;;6.13;1.13;;;;;;;18.31;46.74;100487.59;16123686;19;129349;-41
2022/11/08 10:18:44;;;;;;;4.28;0.70;;;;;;;18.33;47.11;100492.03;16124708;19;129521;-42
2022/11/08 10:24:20;;;;;;;3.60;0.90;;;;;;;18.35;47.31;100496.22;16127586;19;129847;-41
2022/11/08 10:29:45;;;;;;;2.72;0.70;;;;;;;18.36;47.42;100497.91;16127136;19;131465;-41
2022/11/08 10:35:24;;;;;;;6.80;0.93;;;;;;;18.39;46.74;100500.19;16125598;19;129105;-41
2022/11/08 10:41:01;;;;;;;2.92;0.77;;;;;;;18.41;47.12;100484.16;16125241;19;129509;-42
2022/11/08 10:46:35;;;;;;;5.45;1.10;;;;;;;18.41;46.90;100486.94;16124407;19;129725;-42
2022/11/08 10:52:11;;;;;;;2.80;0.90;;;;;;;18.42;47.02;100488.63;16126258;19;134275;-42
2022/11/08 10:57:37;;;;;;;5.05;0.95;;;;;;;18.44;47.08;100483.66;16121863;19;129419;-42
2022/11/08 11:03:15;;;;;;;7.63;1.10;;;;;;;18.44;46.69;100467.03;16122503;19;130406;-41
2022/11/08 11:08:48;;;;;;;2.85;0.80;;;;;;;18.49;46.81;100473.72;16123980;19;131972;-42
2022/11/08 11:14:18;;;;;;;2.40;1.10;;;;;;;18.49;46.92;100468.19;16119139;19;130730;-42
2022/11/08 11:19:52;;;;;;;6.38;1.25;;;;;;;18.51;46.80;100447.47;16119482;19;129693;-43
2022/11/08 11:25:20;;;;;;;3.50;1.38;;;;;;;18.52;46.61;100449.16;16119919;19;129804;-42
2022/11/08 11:30:46;;;;;;;2.75;1.15;;;;;;;18.53;46.67;100449.97;16122625;19;130475;-42
2022/11/08 11:36:13;;;;;;;3.72;1.10;;;;;;;18.52;46.49;100448.28;16118358;19;130099;-43
2022/11/08 11:41:47;;;;;;;6.05;1.10;;;;;;;18.51;46.96;100441.06;16120571;19;129251;-42
2022/11/08 11:47:18;;;;;;;5.93;1.42;;;;;;;18.50;46.53;100439.41;16120099;19;129072;-43
2022/11/08 11:52:39;;;;;;;2.08;1.00;;;;;;;18.49;46.69;100443.25;16119043;19;129486;-42
2022/11/08 11:58:18;;;;;;;2.38;1.00;;;;;;;18.49;46.93;100437.72;16122650;19;129207;-42
2022/11/08 12:03:59;;;;;;;3.15;1.05;;;;;;;18.46;46.64;100450.97;16119391;19;131291;-43
2022/11/08 12:09:39;;;;;;;3.05;1.10;;;;;;;18.43;46.88;100445.97;16117710;19;130019;-42
2022/11/08 12:15:21;;;;;;;4.80;1.20;;;;;;;18.41;46.53;100425.16;16118941;19;129698;-42
2022/11/08 12:21:00;;;;;;;3.47;0.77;;;;;;;18.38;46.99;100415.41;16116654;19;129414;-42
2022/11/08 12:27:12;;;;;;;2.08;0.70;;;;;;;18.40;46.45;100413.25;16118582;19;129196;-42
2022/11/08 12:32:53;;;;;;;7.40;0.70;;;;;;;18.40;46.35;100410.47;16115105;19;130475;-43
2022/11/08 12:38:30;;;;;;;1.92;0.93;;;;;;;18.45;46.50;100415.25;16132934;19;129498;-43
2022/11/08 12:44:29;;;;;;;1.83;0.80;;;;;;;18.45;46.34;100423.56;16134425;19;129613;-43
2022/11/08 12:50:10;;;;;;;1.58;0.60;;;;;;;18.44;46.51;100414.41;16131500;19;130206;-43
2022/11/08 12:55:35;;;;;;;3.30;0.90;;;;;;;18.42;46.72;100407.44;16132478;19;132173;-42
2022/11/08 13:01:03;;;;;;;4.38;1.08;;;;;;;18.40;46.27;100402.19;16134877;19;129637;-43
2022/11/08 13:06:34;;;;;;;1.75;0.88;;;;;;;18.42;46.24;100400.00;16130483;19;129683;-42
2022/11/08 13:12:17;;;;;;;3.17;0.90;;;;;;;18.43;46.28;100400.81;16128574;19;129725;-44
2022/11/08 13:17:39;;;;;;;2.50;0.70;;;;;;;18.42;46.57;100407.44;16127754;19;129387;-42
2022/11/08 13:23:10;;;;;;;2.60;0.80;;;;;;;18.41;46.49;100398.31;16129313;19;129812;-42
2022/11/08 13:28:44;;;;;;;3.85;0.93;;;;;;;18.41;46.24;100392.78;16132037;19;132958;-43
2022/11/08 13:34:20;;;;;;;3.97;0.77;;;;;;;18.39;46.67;100396.88;16133863;19;129644;-43
2022/11/08 13:40:03;;;;;;;3.60;0.93;;;;;;;18.39;46.17;100394.09;16134907;19;135192;-43
2022/11/08 13:45:32;;;;;;;2.25;0.85;;;;;;;18.39;46.39;100394.09;16130684;19;130383;-43
2022/11/08 13:51:17;;;;;;;3.05;0.93;;;;;;;18.38;46.19;100376.63;16132150;19;130068;-42
2022/11/08 13:56:46;;;;;;;2.50;0.65;;;;;;;18.37;46.17;100369.41;16128195;19;129418;-43
2022/11/08 14:02:22;;;;;;;1.42;0.68;;;;;;;18.36;46.17;100373.28;16127722;19;129610;-42
2022/11/08 14:07:53;;;;;;;1.48;0.52;;;;;;;18.33;46.64;100373.81;16127031;19;129509;-43
2022/11/08 14:13:21;;;;;;;2.08;0.77;;;;;;;18.32;46.23;100372.13;16127602;19;129789;-42
2022/11/08 14:18:44;;;;;;;1.50;0.70;;;;;;;18.31;46.19;100376.00;16126595;19;129386;-42
2022/11/08 14:24:16;;;;;;;0.95;0.63;;;;;;;18.32;46.25;100385.97;16129121;19;129680;-43
2022/11/08 14:29:37;;;;;;;3.22;0.57;;;;;;;18.29;46.56;100387.31;16129714;19;130291;-43
2022/11/08 14:35:18;;;;;;;2.45;0.70;;;;;;;18.31;46.19;100392.63;16128501;19;129581;-43
2022/11/08 14:40:48;;;;;;;1.77;0.80;;;;;;;18.29;46.32;100378.19;16127598;19;129532;-42
2022/11/08 14:46:12;;;;;;;1.08;0.40;;;;;;;18.27;46.60;100380.38;16126673;19;129781;-43
2022/11/08 14:51:34;;;;;;;1.58;0.68;;;;;;;18.27;46.53;100380.38;16127194;19;129589;-43
2022/11/08 14:56:55;;;;;;;1.50;0.82;;;;;;;18.24;46.53;100367.03;16124706;19;129793;-43
2022/11/08 15:02:17;;;;;;;0.70;0.60;;;;;;;18.24;46.76;100367.03;16127111;19;129351;-42
2022/11/08 15:07:39;;;;;;;1.05;0.73;;;;;;;18.24;46.47;100358.72;16124540;19;129949;-43
2022/11/08 15:13:01;;;;;;;1.08;0.40;;;;;;;18.23;46.73;100359.81;16124594;19;129297;-43
2022/11/08 15:18:29;;;;;;;1.17;0.50;;;;;;;18.23;46.29;100352.38;16124867;19;129530;-42
2022/11/08 15:23:53;;;;;;;1.02;0.55;;;;;;;18.21;46.75;100350.97;16122016;19;131068;-42
2022/11/08 15:29:18;;;;;;;1.17;0.50;;;;;;;18.21;46.41;100326.84;16123567;19;129043;-43
2022/11/08 15:34:40;;;;;;;0.67;0.50;;;;;;;18.21;46.43;100332.41;16124788;19;129748;-42
2022/11/08 15:40:04;;;;;;;1.77;0.50;;;;;;;18.20;46.68;100329.91;16124092;19;129925;-43
2022/11/08 15:45:31;;;;;;;2.78;0.70;;;;;;;18.20;46.74;100332.66;16124854;19;129769;-43
2022/11/08 15:50:56;;;;;;;1.38;0.50;;;;;;;18.19;46.51;100339.28;16123403;19;129593;-42
2022/11/08 15:56:18;;;;;;;;;;;;;;;18.14;46.27;100338.13;16123066;19;130091;-42
2022/11/08 16:01:51;;;;;;;1.67;0.63;;;;;;;18.17;46.63;100324.88;16115462;19;132158;-43
2022/11/08 16:07:13;;;;;;;1.13;0.57;;;;;;;18.14;46.57;100331.78;16120566;19;129390;-42
2022/11/08 16:12:36;;;;;;;0.98;0.50;;;;;;;18.13;46.25;100336.44;16128059;19;130348;-43
2022/11/08 16:17:59;;;;;;;1.08;0.50;;;;;;;18.13;46.56;100341.16;16122324;19;129747;-42
2022/11/08 16:23:20;;;;;;;0.68;0.40;;;;;;;18.11;46.28;100346.94;16121539;19;129503;-43
2022/11/08 16:28:43;;;;;;;1.42;0.65;;;;;;;18.10;46.74;100350.81;16127865;19;129960;-42
2022/11/08 16:34:05;;;;;;;1.20;0.63;;;;;;;18.09;46.71;100345.53;16131966;19;129719;-43
2022/11/08 16:39:27;;;;;;;2.15;0.40;;;;;;;18.10;46.50;100345.25;16129743;19;131428;-43
2022/11/08 16:44:48;;;;;;;1.10;0.50;;;;;;;18.10;46.51;100352.75;16131022;19;129708;-44
2022/11/08 16:50:24;;;;;;;6.10;1.00;;;;;;;18.11;46.76;100344.16;16132947;19;129961;-43
2022/11/08 16:55:47;;;;;;;6.18;0.82;;;;;;;18.22;46.49;100345.16;16132085;19;129346;-43
2022/11/08 17:01:16;;;;;;;3.38;1.00;;;;;;;18.53;46.39;100334.44;16131660;19;129383;-43
2022/11/08 17:06:38;;;;;;;3.53;1.05;;;;;;;18.83;46.24;100344.19;16126525;19;130555;-43
2022/11/08 17:12:00;;;;;;;8.70;1.15;;;;;;;19.05;46.55;100334.97;16132701;19;130369;-41
2022/11/08 17:17:22;;;;;;;12.02;1.17;;;;;;;19.17;46.09;100337.56;16122657;19;131513;-43
2022/11/08 17:22:44;;;;;;;9.82;1.60;;;;;;;19.20;46.45;100339.81;16127611;19;129958;-42
2022/11/08 17:28:06;;;;;;;16.05;1.48;;;;;;;19.22;46.76;100337.63;16132801;19;130358;-41
2022/11/08 17:33:28;;;;;;;11.10;1.15;;;;;;;19.25;47.12;100322.41;16127095;19;129774;-43
2022/11/08 17:38:49;;;;;;;19.17;1.13;;;;;;;19.29;47.20;100324.41;16126743;19;129618;-42
2022/11/08 17:44:11;;;;;;;7.65;1.35;;;;;;;19.31;47.36;100336.06;16128817;19;129604;-43
2022/11/08 17:49:33;;;;;;;9.40;1.50;;;;;;;19.34;46.90;100324.41;16126100;19;128934;-43
2022/11/08 17:55:00;;;;;;;14.10;1.30;;;;;;;19.37;47.27;100332.22;16129640;19;130580;-42
2022/11/08 18:00:22;;;;;;;13.05;1.35;;;;;;;19.40;47.13;100338.34;16129078;19;132993;-42
2022/11/08 18:05:54;;;;;;;6.22;1.38;;;;;;;19.40;47.25;100344.69;16122158;19;130448;-41
2022/11/08 18:11:16;;;;;;;16.67;1.35;;;;;;;19.35;47.35;100345.50;16126085;19;130754;-43
2022/11/08 18:16:38;;;;;;;12.43;1.75;;;;;;;19.33;47.65;100355.19;16125485;19;130930;-43
2022/11/08 18:21:59;;;;;;;9.73;1.88;;;;;;;19.32;47.44;100362.66;16126474;19;129542;-43
2022/11/08 18:27:21;;;;;;;10.93;1.00;;;;;;;19.35;47.29;100359.38;16126559;19;129261;-43
2022/11/08 18:32:43;;;;;;;12.25;1.17;;;;;;;19.35;47.50;100362.16;16120984;19;129699;-43
2022/11/08 18:38:04;;;;;;;14.05;1.70;;;;;;;19.37;47.35;100362.72;16125035;19;130125;-43
2022/11/08 18:43:27;;;;;;;17.88;1.52;;;;;;;19.37;47.64;100354.41;16125554;19;129354;-45
2022/11/08 18:48:49;;;;;;;21.00;1.63;;;;;;;19.40;48.06;100357.75;16124015;19;129701;-40
2022/11/08 18:54:11;;;;;;;13.98;1.58;;;;;;;19.44;48.15;100354.19;16125365;19;129200;-43
2022/11/08 18:59:32;;;;;;;10.57;1.30;;;;;;;19.52;47.82;100361.16;16124951;19;129713;-44
2022/11/08 19:04:55;;;;;;;6.07;1.65;;;;;;;19.66;47.81;100356.84;16126442;19;129437;-44
2022/11/08 19:10:17;;;;;;;8.30;1.27;;;;;;;19.81;47.53;100366.38;16126659;19;129790;-46
2022/11/08 19:15:38;;;;;;;6.93;1.00;;;;;;;19.92;47.21;100348.66;16126324;19;129782;-32
2022/11/08 19:21:24;;;;;;;6.32;1.00;;;;;;;20.03;46.98;100360.69;16124523;19;129658;-33
2022/11/08 19:26:46;;;;;;;9.48;1.20;;;;;;;20.12;46.87;100352.69;16122798;19;129392;-42
2022/11/08 19:32:07;;;;;;;7.75;0.98;;;;;;;20.20;46.86;100351.31;16124821;19;129922;-41
2022/11/08 19:37:29;;;;;;;7.30;1.30;;;;;;;20.21;46.53;100359.38;16124576;19;129664;-43
2022/11/08 19:42:51;;;;;;;5.28;0.88;;;;;;;20.29;45.90;100358.88;16118774;19;129786;-43
2022/11/08 19:48:12;;;;;;;7.38;0.80;;;;;;;20.39;45.98;100360.84;16114672;19;131575;-44
2022/11/08 19:53:34;;;;;;;5.40;0.80;;;;;;;20.49;46.13;100367.56;16112901;19;129448;-42
2022/11/08 19:58:59;;;;;;;4.95;0.90;;;;;;;20.51;46.09;100370.88;16115049;19;129958;-43
2022/11/08 20:04:21;;;;;;;5.30;1.17;;;;;;;20.48;45.88;100372.25;16115210;19;131022;-48
2022/11/08 20:09:43;;;;;;;7.18;1.23;;;;;;;20.44;45.98;100365.56;16111701;19;129664;-47
2022/11/08 20:15:06;;;;;;;6.60;1.33;;;;;;;20.39;45.92;100368.34;16115198;19;130094;-47
2022/11/08 20:20:29;;;;;;;8.02;0.82;;;;;;;20.31;46.21;100371.66;16118982;19;130740;-44
2022/11/08 20:25:51;;;;;;;9.13;1.08;;;;;;;20.24;46.87;100377.47;16116346;19;130837;-47
2022/11/08 20:31:20;;;;;;;8.57;0.98;;;;;;;20.15;46.81;100385.47;16116497;19;129587;-42
2022/11/08 20:36:43;;;;;;;33.63;1.83;;;;;;;20.07;46.57;100391.50;16115637;19;129887;-43
2022/11/08 20:42:05;;;;;;;19.40;1.42;;;;;;;20.03;46.70;100405.09;16119831;19;130064;-42
2022/11/08 20:47:27;;;;;;;9.93;1.00;;;;;;;19.98;47.18;100394.78;16121379;19;130218;-42
2022/11/08 20:52:48;;;;;;;8.82;0.90;;;;;;;19.95;46.69;100409.19;16115439;19;129568;-43
2022/11/08 20:58:10;;;;;;;13.95;1.35;;;;;;;19.92;47.29;100406.97;16130433;19;129072;-42
2022/11/08 21:03:33;;;;;;;19.10;1.42;;;;;;;19.89;47.17;100417.75;16128130;19;130074;-43
2022/11/08 21:08:54;;;;;;;13.40;1.30;;;;;;;19.88;47.28;100419.69;16131988;19;129029;-43
2022/11/08 21:14:23;;;;;;;20.75;2.03;;;;;;;19.90;47.18;100413.88;16127858;19;130336;-42
2022/11/08 21:19:47;;;;;;;16.83;1.73;;;;;;;19.90;47.00;100428.59;16126914;19;130496;-42
2022/11/08 21:25:08;;;;;;;17.35;1.00;;;;;;;19.91;47.11;100426.66;16129324;19;133088;-42
2022/11/08 21:30:30;;;;;;;17.67;1.33;;;;;;;19.90;47.52;100428.59;16131831;19;130186;-42
2022/11/08 21:35:54;;;;;;;25.67;1.92;;;;;;;19.89;47.22;100438.03;16129955;19;130407;-42
2022/11/08 21:41:16;;;;;;;19.20;1.30;;;;;;;19.83;47.13;100433.53;16129800;19;129570;-41
2022/11/08 21:46:38;;;;;;;14.95;1.35;;;;;;;19.75;47.40;100437.66;16128551;19;130056;-41
2022/11/08 21:52:01;;;;;;;13.27;1.33;;;;;;;19.66;47.28;100437.31;16129989;19;129571;-39
2022/11/08 21:57:22;;;;;;;7.95;1.00;;;;;;;19.60;47.27;100451.41;16129895;19;129565;-42
2022/11/08 22:02:44;;;;;;;5.72;1.10;;;;;;;19.54;47.02;100444.97;16127231;19;129761;-40
2022/11/08 22:08:06;;;;;;;7.75;1.10;;;;;;;19.47;47.37;100436.88;16126703;19;130965;-40
2022/11/08 22:13:27;;;;;;;9.05;1.00;;;;;;;19.43;47.29;100440.44;16129133;19;130625;-42
2022/11/08 22:18:49;;;;;;;14.30;0.90;;;;;;;19.36;47.03;100438.72;16130565;19;129464;-42
2022/11/08 22:24:25;;;;;;;5.95;1.00;;;;;;;19.33;46.83;100442.00;16128171;19;129536;-41
2022/11/08 22:29:47;;;;;;;4.30;0.70;;;;;;;19.28;47.28;100432.81;16131536;19;129539;-40
2022/11/08 22:35:08;;;;;;;3.70;0.73;;;;;;;19.22;46.77;100430.00;16126093;19;130217;-42
2022/11/08 22:40:30;;;;;;;3.85;0.60;;;;;;;19.21;46.76;100431.09;16127916;19;129507;-40
2022/11/08 22:45:52;;;;;;;3.08;0.80;;;;;;;19.20;46.95;100425.78;16126420;19;129655;-43
2022/11/08 22:51:14;;;;;;;3.85;0.85;;;;;;;19.20;46.93;100429.38;16122905;19;129880;-42
2022/11/08 22:56:37;;;;;;;5.93;0.60;;;;;;;19.19;46.61;100435.19;16125085;19;131053;-40
2022/11/08 23:01:58;;;;;;;2.00;0.60;;;;;;;19.17;46.65;100443.78;16123328;19;129547;-41
2022/11/08 23:07:20;;;;;;;1.30;0.70;;;;;;;19.18;46.67;100444.63;16123205;19;129696;-42
2022/11/08 23:18:22;;;;;;;5.00;0.63;;;;;;;19.12;46.63;100437.34;16121761;19;131478;-41
2022/11/08 23:35:04;;;;;;;3.70;0.57;;;;;;;19.07;46.21;100444.53;16122461;19;130103;-41
2022/11/08 23:46:08;;;;;;;3.00;0.50;;;;;;;19.04;45.84;100428.41;16123838;19;129593;-43
2022/11/08 23:51:30;;;;;;;1.08;0.40;;;;;;;19.03;46.08;100443.34;16119513;19;129598;-41
2022/11/08 23:56:52;;;;;;;1.02;0.47;;;;;;;19.01;45.93;100434.47;16122623;19;129851;-42
